Time;durP1;ratioP1;P1;durP2;ratioP2;P2;SDS_P1;SDS_P2;PMS_P1;PMS_P2;Temp;Humidity;BMP_temperature;BMP_pressure;BME280_temperature;BME280_humidity;BME280_pressure;Samples;Min_cycle;Max_cycle;Signal;HPM_P1;HPM_P2
2023/11/25 00:00:51;;;;;;;0.40;0.40;;;2.70;99.90;;;;;;4947862;29;20480;-83
2023/11/25 00:03:17;;;;;;;0.10;0.10;;;2.70;99.90;;;;;;4944244;28;20043;-85
2023/11/25 00:05:43;;;;;;;20.40;0.73;;;2.70;99.90;;;;;;4921895;29;20055;-86
2023/11/25 00:08:10;;;;;;;0.10;0.10;;;2.60;99.90;;;;;;4938419;29;20035;-82
2023/11/25 00:10:36;;;;;;;0.10;0.10;;;2.60;99.90;;;;;;4946596;29;20035;-85
2023/11/25 00:13:06;;;;;;;1.17;0.90;;;2.60;99.90;;;;;;4946000;29;20066;-84
2023/11/25 00:15:33;;;;;;;0.35;0.35;;;2.70;99.90;;;;;;4942157;29;20496;-83
2023/11/25 00:17:59;;;;;;;0.10;0.10;;;2.70;99.90;;;;;;4922373;29;20480;-84
2023/11/25 00:20:25;;;;;;;0.10;0.10;;;2.70;99.90;;;;;;4944479;29;20046;-85
2023/11/25 00:22:52;;;;;;;0.10;0.10;;;2.70;99.90;;;;;;4946540;29;20039;-83
2023/11/25 00:25:19;;;;;;;0.57;0.57;;;2.70;99.90;;;;;;4940808;29;20047;-84
2023/11/25 00:27:46;;;;;;;0.10;0.10;;;2.70;99.90;;;;;;4943071;29;20123;-82
2023/11/25 00:30:14;;;;;;;0.10;0.10;;;2.70;99.90;;;;;;4945470;29;20035;-82
2023/11/25 00:32:41;;;;;;;0.10;0.10;;;2.70;99.90;;;;;;4944931;29;20058;-84
2023/11/25 00:35:08;;;;;;;0.10;0.10;;;2.70;99.90;;;;;;4944284;28;20051;-83
2023/11/25 00:37:35;;;;;;;0.10;0.10;;;2.80;99.90;;;;;;4940072;28;20043;-83
2023/11/25 00:40:25;;;;;;;0.63;0.50;;;2.80;99.90;;;;;;4944679;29;20080;-84
2023/11/25 00:42:52;;;;;;;0.20;0.20;;;2.80;99.90;;;;;;4947345;28;20498;-86
2023/11/25 00:45:18;;;;;;;0.10;0.10;;;2.90;99.90;;;;;;4945056;29;20047;-87
2023/11/25 00:47:45;;;;;;;0.25;0.25;;;2.90;99.90;;;;;;4941490;29;20460;-82
2023/11/25 00:50:11;;;;;;;0.10;0.10;;;2.90;99.90;;;;;;4930707;29;20047;-81
2023/11/25 00:52:38;;;;;;;0.20;0.20;;;2.90;99.90;;;;;;4929339;29;20054;-84
2023/11/25 00:55:05;;;;;;;0.30;0.30;;;3.00;99.90;;;;;;4928714;29;20051;-83
2023/11/25 00:57:31;;;;;;;1.45;1.17;;;3.00;99.90;;;;;;4939518;29;20484;-83
2023/11/25 00:59:58;;;;;;;0.20;0.20;;;2.90;99.90;;;;;;4939564;29;20397;-83
2023/11/25 01:02:24;;;;;;;0.10;0.10;;;2.80;99.90;;;;;;4942438;29;20050;-82
2023/11/25 01:04:50;;;;;;;0.40;0.40;;;2.80;99.90;;;;;;4947319;29;20039;-83
2023/11/25 01:07:20;;;;;;;0.20;0.20;;;2.70;99.90;;;;;;4926987;29;20051;-83
2023/11/25 01:09:46;;;;;;;0.75;0.35;;;2.70;99.90;;;;;;4942547;29;20036;-83
2023/11/25 01:12:12;;;;;;;0.10;0.10;;;2.70;99.90;;;;;;4945414;29;20047;-82
2023/11/25 01:14:38;;;;;;;0.10;0.10;;;2.70;99.90;;;;;;4929631;29;20507;-83
2023/11/25 01:17:04;;;;;;;0.15;0.15;;;2.70;99.90;;;;;;4925440;29;20408;-82
2023/11/25 01:19:30;;;;;;;1.13;0.82;;;2.60;99.90;;;;;;4942545;29;20044;-81
2023/11/25 01:21:57;;;;;;;2.58;1.85;;;2.70;99.90;;;;;;4927619;29;20070;-81
2023/11/25 01:24:23;;;;;;;0.10;0.10;;;2.60;99.90;;;;;;4943286;28;20512;-84
2023/11/25 01:26:50;;;;;;;0.25;0.25;;;2.60;99.90;;;;;;4945174;29;20035;-84
2023/11/25 01:29:17;;;;;;;1.30;1.20;;;2.60;99.90;;;;;;4946863;28;20031;-83
2023/11/25 01:31:44;;;;;;;0.15;0.15;;;2.50;99.90;;;;;;4947911;28;20215;-84
2023/11/25 01:34:11;;;;;;;0.80;0.68;;;2.50;99.90;;;;;;4935785;29;20050;-84
2023/11/25 01:36:37;;;;;;;0.10;0.10;;;2.40;99.90;;;;;;4949244;29;20054;-83
2023/11/25 01:39:05;;;;;;;0.10;0.10;;;2.40;99.90;;;;;;4952082;28;20054;-82
2023/11/25 01:41:31;;;;;;;0.10;0.10;;;2.60;99.90;;;;;;4945239;29;20027;-82
2023/11/25 01:43:59;;;;;;;0.10;0.10;;;2.60;99.90;;;;;;4932215;29;20047;-84
2023/11/25 01:46:38;;;;;;;0.10;0.10;;;2.60;99.90;;;;;;4932459;29;20043;-83
2023/11/25 01:49:10;;;;;;;2.20;0.77;;;2.50;99.90;;;;;;4951275;28;20035;-80
2023/11/25 01:51:39;;;;;;;0.90;0.38;;;2.50;99.90;;;;;;4949119;29;20046;-81
2023/11/25 01:54:06;;;;;;;0.20;0.20;;;2.50;99.90;;;;;;4948337;28;20362;-82
2023/11/25 01:56:33;;;;;;;0.38;0.38;;;2.50;99.90;;;;;;4950182;28;20050;-82
2023/11/25 01:59:01;;;;;;;0.10;0.10;;;2.40;99.90;;;;;;4936070;29;20042;-82
2023/11/25 02:01:31;;;;;;;0.13;0.13;;;2.30;99.90;;;;;;4932524;29;20051;-80
2023/11/25 02:03:57;;;;;;;0.10;0.10;;;2.40;99.90;;;;;;4943237;29;20071;-83
2023/11/25 02:06:23;;;;;;;0.10;0.10;;;2.30;99.90;;;;;;4931307;29;20050;-81
2023/11/25 02:08:50;;;;;;;0.10;0.10;;;2.30;99.90;;;;;;4934960;29;20039;-82
2023/11/25 02:11:17;;;;;;;0.10;0.10;;;2.30;99.90;;;;;;4949267;29;20039;-81
2023/11/25 02:13:44;;;;;;;1.05;0.30;;;2.10;99.90;;;;;;4948620;29;20042;-82
2023/11/25 02:16:15;;;;;;;1.10;0.40;;;2.00;99.90;;;;;;4931222;29;20058;-82
2023/11/25 02:18:43;;;;;;;0.10;0.10;;;2.00;99.90;;;;;;4950462;29;20051;-84
2023/11/25 02:21:10;;;;;;;0.20;0.20;;;1.90;99.90;;;;;;4935534;29;20043;-84
2023/11/25 02:23:36;;;;;;;0.10;0.10;;;1.90;99.90;;;;;;4932535;28;20051;-85
2023/11/25 02:26:03;;;;;;;1.10;1.00;;;1.90;99.90;;;;;;4930693;29;20050;-84
2023/11/25 02:28:29;;;;;;;0.10;0.10;;;2.00;99.90;;;;;;4931019;29;20480;-83
2023/11/25 02:30:56;;;;;;;0.32;0.32;;;1.90;99.90;;;;;;4936188;29;20058;-84
2023/11/25 02:33:24;;;;;;;0.15;0.15;;;2.00;99.90;;;;;;4947400;29;20039;-81
2023/11/25 02:35:52;;;;;;;0.30;0.30;;;2.10;99.90;;;;;;4946109;29;20046;-85
2023/11/25 02:38:20;;;;;;;2.72;0.98;;;2.00;99.90;;;;;;4929563;29;20400;-83
2023/11/25 02:40:48;;;;;;;0.50;0.50;;;2.00;99.90;;;;;;4934360;29;20039;-84
2023/11/25 02:43:16;;;;;;;0.10;0.10;;;2.00;99.90;;;;;;4930179;28;20051;-81
2023/11/25 02:45:43;;;;;;;0.10;0.10;;;2.00;99.90;;;;;;4945937;29;20031;-84
2023/11/25 02:48:09;;;;;;;1.02;1.02;;;1.90;99.90;;;;;;4944235;29;20036;-83
2023/11/25 02:50:35;;;;;;;1.02;0.80;;;1.90;99.90;;;;;;4948708;29;20036;-84
2023/11/25 02:53:04;;;;;;;0.10;0.10;;;2.00;99.90;;;;;;4916990;29;20044;-84
2023/11/25 02:55:30;;;;;;;0.20;0.20;;;2.00;99.90;;;;;;4943372;28;20058;-82
2023/11/25 02:57:57;;;;;;;0.17;0.17;;;1.90;99.90;;;;;;4944875;29;20051;-82
2023/11/25 03:02:53;;;;;;;0.10;0.10;;;1.80;99.90;;;;;;4947946;29;20496;-83
2023/11/25 03:05:22;;;;;;;0.10;0.10;;;1.80;99.90;;;;;;4926437;29;20048;-83
2023/11/25 03:07:50;;;;;;;0.10;0.10;;;1.80;99.90;;;;;;4928917;29;20105;-84
2023/11/25 03:10:16;;;;;;;0.30;0.30;;;1.70;99.90;;;;;;4927698;29;20063;-82
2023/11/25 03:12:44;;;;;;;0.20;0.20;;;1.80;99.90;;;;;;4947874;29;20032;-87
2023/11/25 03:15:13;;;;;;;1.20;1.20;;;1.70;99.90;;;;;;4947427;28;20051;-84
2023/11/25 03:17:40;;;;;;;0.20;0.20;;;1.60;99.90;;;;;;4926749;29;20125;-84
2023/11/25 03:20:08;;;;;;;1.17;1.10;;;1.50;99.90;;;;;;4948972;29;20047;-83
2023/11/25 03:22:37;;;;;;;0.10;0.10;;;1.40;99.90;;;;;;4936980;29;20055;-84
2023/11/25 03:25:05;;;;;;;0.25;0.25;;;1.30;99.90;;;;;;4951209;29;20039;-84
2023/11/25 03:27:31;;;;;;;0.10;0.10;;;1.30;99.90;;;;;;4942381;29;20055;-84
2023/11/25 03:29:58;;;;;;;0.82;0.82;;;1.20;99.90;;;;;;4941695;29;20047;-83
2023/11/25 03:32:27;;;;;;;0.10;0.10;;;1.10;99.90;;;;;;4929578;29;20054;-83
2023/11/25 03:34:55;;;;;;;0.40;0.40;;;1.10;99.90;;;;;;4948585;29;20032;-82
2023/11/25 03:37:22;;;;;;;0.10;0.10;;;1.20;99.90;;;;;;4946373;29;20039;-82
2023/11/25 03:39:48;;;;;;;0.10;0.10;;;1.10;99.90;;;;;;4954845;29;20028;-83
2023/11/25 03:42:14;;;;;;;0.20;0.20;;;1.10;99.90;;;;;;4928421;29;20047;-83
2023/11/25 03:44:41;;;;;;;0.20;0.20;;;1.00;99.90;;;;;;4947985;29;20046;-84
2023/11/25 03:47:10;;;;;;;0.30;0.30;;;1.00;99.90;;;;;;4930016;29;20044;-83
2023/11/25 03:49:36;;;;;;;0.10;0.10;;;1.00;99.90;;;;;;4948456;29;20044;-83
2023/11/25 03:52:02;;;;;;;0.00;0.00;;;0.90;99.90;;;;;;4942959;29;20031;-83
2023/11/25 03:54:28;;;;;;;0.10;0.10;;;0.80;99.90;;;;;;4945367;29;20393;-83
2023/11/25 03:56:55;;;;;;;0.75;0.75;;;0.70;99.90;;;;;;4929064;29;20047;-83
2023/11/25 03:59:21;;;;;;;0.10;0.10;;;0.60;99.90;;;;;;4934258;29;20050;-83
2023/11/25 04:01:47;;;;;;;0.00;0.00;;;0.50;99.90;;;;;;4932082;29;20044;-84
2023/11/25 04:04:13;;;;;;;0.35;0.20;;;0.40;99.90;;;;;;4927138;29;20051;-83
2023/11/25 04:06:39;;;;;;;0.10;0.10;;;0.30;99.90;;;;;;4947313;29;20829;-83
2023/11/25 04:09:05;;;;;;;0.40;0.28;;;0.20;1.00;;;;;;4928898;29;20039;-82
2023/11/25 04:11:32;;;;;;;0.20;0.20;;;0.20;1.00;;;;;;4941299;29;20039;-82
2023/11/25 04:13:58;;;;;;;0.10;0.10;;;0.10;1.00;;;;;;4948090;29;20038;-84
2023/11/25 04:16:24;;;;;;;0.00;0.00;;;0.00;1.00;;;;;;4944803;28;20052;-82
2023/11/25 04:18:51;;;;;;;0.63;0.35;;;0.00;1.00;;;;;;4926921;28;20051;-86
2023/11/25 04:21:21;;;;;;;0.00;0.00;;;0.00;1.00;;;;;;4948178;29;20035;-83
2023/11/25 04:23:55;;;;;;;0.25;0.15;;;0.00;1.00;;;;;;4940084;28;20052;-85
2023/11/25 04:26:24;;;;;;;0.20;0.20;;;0.10;1.00;;;;;;4941605;29;20035;-81
2023/11/25 04:28:51;;;;;;;0.00;0.00;;;0.10;1.00;;;;;;4929808;29;20100;-85
2023/11/25 04:31:17;;;;;;;0.10;0.10;;;0.20;1.00;;;;;;4928689;29;20051;-83
2023/11/25 04:33:43;;;;;;;0.20;0.20;;;0.30;1.00;;;;;;4940844;29;20051;-85
2023/11/25 04:36:10;;;;;;;0.45;0.45;;;0.30;1.00;;;;;;4924117;29;20052;-86
2023/11/25 04:38:36;;;;;;;2.58;2.38;;;0.40;1.00;;;;;;4944319;29;20035;-85
2023/11/25 04:41:02;;;;;;;0.20;0.20;;;0.50;1.00;;;;;;4931653;29;20024;-86
2023/11/25 04:43:28;;;;;;;0.73;0.73;;;0.50;1.00;;;;;;4929150;29;20051;-86
2023/11/25 04:45:56;;;;;;;1.30;0.73;;;0.40;1.00;;;;;;4941190;29;20035;-83
2023/11/25 04:48:23;;;;;;;0.22;0.22;;;0.50;1.00;;;;;;4944016;29;20492;-85
2023/11/25 04:50:49;;;;;;;0.45;0.40;;;0.50;1.00;;;;;;4944944;28;20499;-86
2023/11/25 04:53:15;;;;;;;1.40;1.30;;;0.50;1.00;;;;;;4945067;29;20139;-85
2023/11/25 04:55:41;;;;;;;5.78;2.08;;;0.50;1.00;;;;;;4927227;29;20047;-85
2023/11/25 04:58:07;;;;;;;1.17;0.70;;;0.50;1.00;;;;;;4926308;29;20369;-86
2023/11/25 05:00:34;;;;;;;1.13;1.13;;;0.50;1.00;;;;;;4930713;29;20042;-86
2023/11/25 05:03:01;;;;;;;0.82;0.80;;;0.50;1.00;;;;;;4946665;28;20043;-86
2023/11/25 05:05:27;;;;;;;0.10;0.10;;;0.60;1.00;;;;;;4927159;29;20059;-85
2023/11/25 05:07:53;;;;;;;0.82;0.80;;;0.60;1.00;;;;;;4938594;29;20031;-83
2023/11/25 05:10:20;;;;;;;0.57;0.57;;;0.60;1.00;;;;;;4928421;29;20047;-83
2023/11/25 05:12:50;;;;;;;1.23;1.13;;;0.70;1.00;;;;;;4946479;29;20469;-85
2023/11/25 05:15:16;;;;;;;0.20;0.20;;;0.90;1.00;;;;;;4941224;29;20044;-84
2023/11/25 05:17:42;;;;;;;0.32;0.32;;;1.10;1.00;;;;;;4941152;29;20058;-82
2023/11/25 05:20:10;;;;;;;0.10;0.10;;;1.30;1.00;;;;;;4929517;29;20035;-83
2023/11/25 05:22:37;;;;;;;7.85;1.38;;;1.50;1.00;;;;;;4946153;29;20043;-83
2023/11/25 05:25:03;;;;;;;1.38;1.13;;;1.60;1.00;;;;;;4943622;29;20044;-82
2023/11/25 05:27:29;;;;;;;0.43;0.38;;;1.60;1.00;;;;;;4940394;29;20046;-83
2023/11/25 05:29:55;;;;;;;0.10;0.10;;;1.70;99.90;;;;;;4954653;29;20035;-82
2023/11/25 05:32:22;;;;;;;0.20;0.20;;;1.60;99.90;;;;;;4959251;29;20035;-81
2023/11/25 05:34:49;;;;;;;0.75;0.75;;;1.60;99.90;;;;;;4959399;28;20042;-82
2023/11/25 05:37:16;;;;;;;0.73;0.73;;;1.60;99.90;;;;;;4932903;29;20401;-83
2023/11/25 05:39:43;;;;;;;2.95;0.95;;;1.50;99.90;;;;;;4923586;29;20047;-82
2023/11/25 05:42:09;;;;;;;0.20;0.20;;;1.50;99.90;;;;;;4931622;29;20039;-84
2023/11/25 05:44:35;;;;;;;0.10;0.10;;;1.60;99.90;;;;;;4929151;29;20048;-83
2023/11/25 05:47:01;;;;;;;0.50;0.50;;;1.50;99.90;;;;;;4926665;29;20043;-83
2023/11/25 05:49:28;;;;;;;0.10;0.10;;;1.40;99.90;;;;;;4936571;29;20040;-83
2023/11/25 05:51:54;;;;;;;0.00;0.00;;;1.50;99.90;;;;;;4945630;29;20035;-84
2023/11/25 05:54:20;;;;;;;0.82;0.82;;;1.50;99.90;;;;;;4945758;28;20058;-82
2023/11/25 05:56:48;;;;;;;0.20;0.20;;;1.50;99.90;;;;;;4930671;29;20040;-82
2023/11/25 05:59:16;;;;;;;0.30;0.30;;;1.40;99.90;;;;;;4930998;29;20396;-83
2023/11/25 06:01:43;;;;;;;0.65;0.55;;;1.40;99.90;;;;;;4941462;29;20636;-83
2023/11/25 06:04:09;;;;;;;0.60;0.35;;;1.30;99.90;;;;;;4931329;29;20039;-83
2023/11/25 06:06:36;;;;;;;0.35;0.35;;;1.30;99.90;;;;;;4942684;29;20043;-83
2023/11/25 06:09:02;;;;;;;1.20;1.10;;;1.30;99.90;;;;;;4942421;29;20050;-83
2023/11/25 06:11:32;;;;;;;0.20;0.20;;;1.20;1.00;;;;;;4939420;29;20032;-82
2023/11/25 06:13:59;;;;;;;0.85;0.68;;;1.20;1.00;;;;;;4944836;29;20047;-83
2023/11/25 06:16:25;;;;;;;0.75;0.75;;;1.20;1.00;;;;;;4930421;29;20055;-83
2023/11/25 06:18:52;;;;;;;0.10;0.10;;;1.10;1.00;;;;;;4947799;29;20055;-84
2023/11/25 06:21:19;;;;;;;0.20;0.20;;;1.10;1.00;;;;;;4945015;28;20071;-82
2023/11/25 06:23:46;;;;;;;1.27;0.80;;;1.20;1.00;;;;;;4931803;29;20039;-82
2023/11/25 06:26:13;;;;;;;0.73;0.73;;;1.30;1.00;;;;;;4933760;29;20496;-82
2023/11/25 06:28:44;;;;;;;2.83;2.10;;;1.40;1.00;;;;;;4931840;29;20123;-82
2023/11/25 06:31:14;;;;;;;0.55;0.45;;;1.40;1.00;;;;;;4942595;29;20048;-83
2023/11/25 06:33:41;;;;;;;0.30;0.30;;;1.40;1.00;;;;;;4930917;29;20047;-83
2023/11/25 06:36:08;;;;;;;0.35;0.35;;;1.40;99.90;;;;;;4946893;28;20051;-82
2023/11/25 06:38:34;;;;;;;0.10;0.10;;;1.40;99.90;;;;;;4948629;29;20035;-83
2023/11/25 06:41:01;;;;;;;0.22;0.22;;;1.50;99.90;;;;;;4928065;29;20047;-82
2023/11/25 06:43:28;;;;;;;0.10;0.10;;;1.50;99.90;;;;;;4944572;29;20036;-83
2023/11/25 06:45:54;;;;;;;1.45;1.05;;;1.60;99.90;;;;;;4947463;29;20036;-82
2023/11/25 06:48:23;;;;;;;0.20;0.20;;;1.60;99.90;;;;;;4946736;28;20048;-82
2023/11/25 06:50:50;;;;;;;0.30;0.30;;;1.70;99.90;;;;;;4937786;28;20043;-82
2023/11/25 06:53:17;;;;;;;0.45;0.45;;;2.00;99.90;;;;;;4929689;29;20051;-83
2023/11/25 06:55:44;;;;;;;0.10;0.10;;;2.10;99.90;;;;;;4929893;29;20120;-83
2023/11/25 06:58:13;;;;;;;0.10;0.10;;;2.30;99.90;;;;;;4947233;29;20040;-81
2023/11/25 07:00:41;;;;;;;0.55;0.55;;;2.40;99.90;;;;;;4945953;29;20043;-82
2023/11/25 07:03:14;;;;;;;0.32;0.32;;;2.30;99.90;;;;;;4942174;29;20404;-82
2023/11/25 07:05:41;;;;;;;0.98;0.95;;;2.30;99.90;;;;;;4924593;29;20038;-81
2023/11/25 07:08:07;;;;;;;0.40;0.40;;;2.40;99.90;;;;;;4946189;29;20047;-82
2023/11/25 07:10:36;;;;;;;0.10;0.10;;;2.30;99.90;;;;;;4931664;29;20039;-82
2023/11/25 07:13:06;;;;;;;0.10;0.10;;;2.30;99.90;;;;;;4931401;28;20048;-81
2023/11/25 07:15:32;;;;;;;2.55;0.95;;;2.30;99.90;;;;;;4937255;29;20078;-81
2023/11/25 07:17:59;;;;;;;0.38;0.38;;;2.30;99.90;;;;;;4920956;29;20406;-81
2023/11/25 07:20:27;;;;;;;2.30;0.77;;;2.40;99.90;;;;;;4912592;29;20036;-81
2023/11/25 07:22:53;;;;;;;0.10;0.10;;;2.50;99.90;;;;;;4911738;29;20044;-81
2023/11/25 07:25:19;;;;;;;0.63;0.57;;;2.60;99.90;;;;;;4902372;29;20041;-81
2023/11/25 07:27:46;;;;;;;0.55;0.55;;;2.60;99.90;;;;;;4906022;29;20221;-81
2023/11/25 07:30:14;;;;;;;0.28;0.28;;;2.70;99.90;;;;;;4908806;29;20036;-84
2023/11/25 07:32:40;;;;;;;0.30;0.30;;;2.70;99.90;;;;;;4925079;29;20036;-82
2023/11/25 07:35:07;;;;;;;0.32;0.32;;;2.70;99.90;;;;;;4921243;29;20056;-83
2023/11/25 07:37:34;;;;;;;0.15;0.15;;;2.70;99.90;;;;;;4902637;29;20040;-82
2023/11/25 07:40:08;;;;;;;0.50;0.43;;;2.80;99.90;;;;;;4923930;29;20036;-83
2023/11/25 07:42:36;;;;;;;0.20;0.20;;;2.80;99.90;;;;;;4923795;29;20498;-81
2023/11/25 07:45:09;;;;;;;0.20;0.20;;;2.90;99.90;;;;;;4907366;29;20032;-81
2023/11/25 07:47:36;;;;;;;1.52;0.73;;;2.90;96.40;;;;;;4898463;29;20045;-81
2023/11/25 07:50:02;;;;;;;1.25;1.17;;;2.90;99.90;;;;;;4924117;29;20036;-82
2023/11/25 07:52:30;;;;;;;1.58;1.23;;;2.90;99.80;;;;;;4907273;29;20489;-82
2023/11/25 07:54:56;;;;;;;1.45;1.35;;;3.00;97.30;;;;;;4909351;29;20052;-82
2023/11/25 07:57:22;;;;;;;0.10;0.10;;;3.10;89.20;;;;;;4920727;29;20036;-83
2023/11/25 07:59:49;;;;;;;0.20;0.20;;;3.20;91.70;;;;;;4908505;29;20051;-83
2023/11/25 08:02:15;;;;;;;1.88;1.10;;;3.30;84.80;;;;;;4909024;29;20032;-83
2023/11/25 08:04:41;;;;;;;0.20;0.20;;;3.50;49.60;;;;;;4910855;29;20470;-84
2023/11/25 08:07:08;;;;;;;0.40;0.40;;;3.60;20.30;;;;;;4921073;29;20036;-83
2023/11/25 08:09:34;;;;;;;0.45;0.45;;;3.70;1.00;;;;;;4900546;29;20036;-85
2023/11/25 08:12:00;;;;;;;1.95;1.42;;;3.80;5.20;;;;;;4909975;29;20035;-83
2023/11/25 08:14:27;;;;;;;0.20;0.20;;;3.80;1.00;;;;;;4924329;29;20056;-83
2023/11/25 08:16:53;;;;;;;1.30;0.40;;;3.90;1.00;;;;;;4905610;29;20052;-82
2023/11/25 08:19:21;;;;;;;0.15;0.15;;;3.80;1.00;;;;;;4903532;29;20056;-79
2023/11/25 08:21:50;;;;;;;0.40;0.40;;;3.80;1.00;;;;;;4921155;29;20048;-79
2023/11/25 08:24:19;;;;;;;0.50;0.50;;;3.80;1.00;;;;;;4923374;29;20397;-79
2023/11/25 08:26:46;;;;;;;0.10;0.10;;;3.80;1.00;;;;;;4911989;29;20377;-79
2023/11/25 08:29:12;;;;;;;0.43;0.43;;;3.90;1.00;;;;;;4906476;29;20028;-79
2023/11/25 08:31:39;;;;;;;0.70;0.70;;;3.90;1.00;;;;;;4906314;29;20040;-80
2023/11/25 08:34:09;;;;;;;0.63;0.63;;;3.90;1.00;;;;;;4906929;29;20048;-80
2023/11/25 08:36:45;;;;;;;0.47;0.47;;;3.90;1.00;;;;;;4923019;29;20040;-79
2023/11/25 08:39:13;;;;;;;0.30;0.30;;;3.90;1.00;;;;;;4905810;29;20037;-80
2023/11/25 08:41:45;;;;;;;0.55;0.55;;;3.80;1.00;;;;;;4902624;29;20040;-81
2023/11/25 08:44:12;;;;;;;0.32;0.32;;;3.70;1.00;;;;;;4908493;29;20031;-79
2023/11/25 08:46:45;;;;;;;0.40;0.40;;;3.70;1.00;;;;;;4921961;29;20044;-81
2023/11/25 08:49:18;;;;;;;0.10;0.10;;;3.70;1.00;;;;;;4921292;29;20040;-81
2023/11/25 08:51:47;;;;;;;0.10;0.10;;;3.60;1.00;;;;;;4900785;29;20458;-80
2023/11/25 08:54:20;;;;;;;0.10;0.10;;;3.50;1.00;;;;;;4903591;29;20394;-81
2023/11/25 08:56:47;;;;;;;0.10;0.10;;;3.50;1.00;;;;;;4907194;29;20036;-80
2023/11/25 08:59:17;;;;;;;0.10;0.10;;;3.60;1.00;;;;;;4908503;29;20048;-80
2023/11/25 09:01:44;;;;;;;2.72;1.52;;;3.60;1.00;;;;;;4903656;29;20355;-79
2023/11/25 09:04:16;;;;;;;1.75;1.42;;;3.60;1.00;;;;;;4907055;29;20040;-84
2023/11/25 09:06:42;;;;;;;2.63;0.75;;;3.60;1.00;;;;;;4907555;29;20048;-84
2023/11/25 09:09:08;;;;;;;0.77;0.70;;;3.70;1.00;;;;;;4907157;29;20044;-83
2023/11/25 09:11:35;;;;;;;0.28;0.28;;;3.70;1.00;;;;;;4901894;29;20040;-85
2023/11/25 09:14:04;;;;;;;0.10;0.10;;;3.70;1.00;;;;;;4906392;29;20048;-84
2023/11/25 09:16:30;;;;;;;0.28;0.28;;;3.70;1.00;;;;;;4906238;29;20036;-86
2023/11/25 09:18:56;;;;;;;0.43;0.43;;;3.70;1.00;;;;;;4922797;28;20058;-84
2023/11/25 09:21:23;;;;;;;1.63;1.40;;;3.70;1.00;;;;;;4907336;29;20044;-84
2023/11/25 09:23:49;;;;;;;0.63;0.52;;;3.70;1.00;;;;;;4906265;29;20033;-83
2023/11/25 09:26:16;;;;;;;0.30;0.30;;;3.70;1.00;;;;;;4921109;29;20053;-84
2023/11/25 09:28:42;;;;;;;0.10;0.10;;;3.70;1.00;;;;;;4921662;29;20398;-85
2023/11/25 09:31:08;;;;;;;0.17;0.17;;;3.90;1.00;;;;;;4910230;29;20032;-85
2023/11/25 09:33:36;;;;;;;0.17;0.17;;;3.80;1.00;;;;;;4900198;29;20036;-87
2023/11/25 09:36:02;;;;;;;0.43;0.43;;;3.80;2.10;;;;;;4903933;29;20047;-85
2023/11/25 09:38:28;;;;;;;0.82;0.73;;;3.80;1.00;;;;;;4923696;29;20497;-86
2023/11/25 09:40:55;;;;;;;0.10;0.10;;;3.90;1.00;;;;;;4922004;29;20056;-84
2023/11/25 09:43:21;;;;;;;0.35;0.35;;;3.90;1.00;;;;;;4910455;29;20052;-85
2023/11/25 09:45:50;;;;;;;0.20;0.20;;;3.90;1.00;;;;;;4918560;29;20055;-84
2023/11/25 09:48:17;;;;;;;0.32;0.32;;;3.90;1.00;;;;;;4907956;29;20064;-83
2023/11/25 09:50:44;;;;;;;0.63;0.63;;;4.00;1.00;;;;;;4927291;29;20047;-84
2023/11/25 09:53:15;;;;;;;0.50;0.50;;;4.00;1.00;;;;;;4933405;29;20043;-85
2023/11/25 09:55:57;;;;;;;0.10;0.10;;;4.10;1.00;;;;;;4935793;29;20052;-87
2023/11/25 09:58:27;;;;;;;0.20;0.20;;;4.20;1.00;;;;;;4934327;29;20022;-89
2023/11/25 10:00:56;;;;;;;0.10;0.10;;;4.20;1.00;;;;;;4939028;29;20047;-89
2023/11/25 10:03:23;;;;;;;0.73;0.63;;;4.30;1.00;;;;;;4916326;29;20028;-87
2023/11/25 10:05:49;;;;;;;3.20;1.65;;;4.30;1.00;;;;;;4913473;29;20044;-86
2023/11/25 10:08:15;;;;;;;2.28;1.30;;;4.30;1.00;;;;;;4937372;29;20051;-88
2023/11/25 10:10:58;;;;;;;0.10;0.10;;;4.30;1.00;;;;;;4932145;29;20052;-81
2023/11/25 10:13:25;;;;;;;0.68;0.63;;;4.30;1.00;;;;;;4910100;29;20036;-82
2023/11/25 10:15:52;;;;;;;0.10;0.10;;;4.30;1.00;;;;;;4904259;29;20052;-83
2023/11/25 10:18:18;;;;;;;0.47;0.47;;;4.30;1.00;;;;;;4921750;29;20067;-83
2023/11/25 10:20:47;;;;;;;0.35;0.35;;;4.30;1.00;;;;;;4924362;29;20036;-82
2023/11/25 10:23:21;;;;;;;0.10;0.10;;;4.40;1.00;;;;;;4910135;29;20032;-83
2023/11/25 10:25:47;;;;;;;0.20;0.20;;;4.40;1.00;;;;;;4924543;29;20040;-81
2023/11/25 10:28:14;;;;;;;0.80;0.80;;;4.40;1.00;;;;;;4898727;29;20028;-79
2023/11/25 10:30:41;;;;;;;0.45;0.45;;;4.50;1.00;;;;;;4909831;29;20044;-80
2023/11/25 10:33:07;;;;;;;0.10;0.10;;;4.50;1.00;;;;;;4917809;29;20051;-81
2023/11/25 10:35:37;;;;;;;0.82;0.82;;;4.50;1.00;;;;;;4914575;29;20052;-81
2023/11/25 10:38:05;;;;;;;0.30;0.30;;;4.60;1.00;;;;;;4923662;29;20052;-83
2023/11/25 10:40:31;;;;;;;1.65;0.47;;;4.70;1.00;;;;;;4919083;29;20397;-78
2023/11/25 10:43:02;;;;;;;0.40;0.20;;;4.70;1.00;;;;;;4910649;29;20039;-78
2023/11/25 10:45:28;;;;;;;2.77;1.90;;;4.80;1.00;;;;;;4925605;29;20036;-79
2023/11/25 10:47:58;;;;;;;0.68;0.65;;;4.80;1.00;;;;;;4923474;29;20284;-79
2023/11/25 10:50:25;;;;;;;1.27;0.80;;;4.90;1.00;;;;;;4909927;29;20033;-78
2023/11/25 10:52:57;;;;;;;0.75;0.75;;;5.00;1.00;;;;;;4907415;29;20036;-79
2023/11/25 10:55:26;;;;;;;9.40;4.35;;;5.10;1.00;;;;;;4909945;29;20040;-78
2023/11/25 10:57:56;;;;;;;0.75;0.75;;;5.10;1.00;;;;;;4907820;29;20055;-79
2023/11/25 11:00:22;;;;;;;2.35;1.75;;;5.10;1.00;;;;;;4920791;29;20051;-79
2023/11/25 11:02:54;;;;;;;4.30;2.58;;;5.20;1.00;;;;;;4907500;29;20059;-79
2023/11/25 11:06:01;;;;;;;5.57;1.23;;;5.10;1.00;;;;;;4936490;29;20048;-78
2023/11/25 11:08:31;;;;;;;0.20;0.20;;;5.20;1.00;;;;;;4916069;29;20031;-78
2023/11/25 11:11:03;;;;;;;0.85;0.55;;;5.10;1.00;;;;;;4925255;29;20027;-80
2023/11/25 11:13:42;;;;;;;0.20;0.20;;;5.10;1.00;;;;;;4918848;29;20039;-77
2023/11/25 11:16:40;;;;;;;0.60;0.50;;;5.10;1.00;;;;;;4910855;29;20533;-79
2023/11/25 11:19:10;;;;;;;0.32;0.32;;;5.10;1.00;;;;;;4927728;29;20041;-79
2023/11/25 11:21:41;;;;;;;0.80;0.80;;;5.00;1.00;;;;;;4905515;29;20052;-79
2023/11/25 11:24:08;;;;;;;2.97;1.48;;;5.00;1.00;;;;;;4908458;29;20043;-79
2023/11/25 11:26:56;;;;;;;2.38;1.85;;;4.90;1.00;;;;;;4916797;29;20466;-78
2023/11/25 11:29:35;;;;;;;0.52;0.52;;;4.90;1.00;;;;;;4917097;29;20070;-79
2023/11/25 11:32:08;;;;;;;0.35;0.35;;;4.90;1.00;;;;;;4917839;29;20066;-80
2023/11/25 11:34:39;;;;;;;11.50;1.85;;;5.00;1.00;;;;;;4927153;29;20044;-78
2023/11/25 11:37:08;;;;;;;0.25;0.25;;;5.00;1.00;;;;;;4920049;29;20047;-79
2023/11/25 11:40:00;;;;;;;0.20;0.20;;;5.10;1.00;;;;;;4910870;29;20036;-79
2023/11/25 11:42:29;;;;;;;0.75;0.75;;;5.10;1.00;;;;;;4922832;29;20032;-78
2023/11/25 11:45:21;;;;;;;0.68;0.68;;;5.20;1.00;;;;;;4904687;29;20047;-79
2023/11/25 11:47:50;;;;;;;0.10;0.10;;;5.40;1.00;;;;;;4921676;29;20410;-77
2023/11/25 11:50:26;;;;;;;0.20;0.20;;;5.40;1.00;;;;;;4909432;29;20040;-77
2023/11/25 11:52:59;;;;;;;0.20;0.20;;;5.40;1.00;;;;;;4917335;29;20041;-78
2023/11/25 11:55:40;;;;;;;0.40;0.40;;;5.30;99.90;;;;;;4906390;29;20461;-78
2023/11/25 11:58:11;;;;;;;4.05;1.10;;;5.30;1.00;;;;;;4900901;29;20043;-78
2023/11/25 12:00:42;;;;;;;0.43;0.38;;;5.30;1.00;;;;;;4910659;29;20032;-79
2023/11/25 12:03:10;;;;;;;1.05;0.77;;;5.30;1.00;;;;;;4909018;29;20407;-77
2023/11/25 12:05:36;;;;;;;1.02;0.98;;;5.30;1.00;;;;;;4905356;29;20389;-78
2023/11/25 12:08:03;;;;;;;0.80;0.80;;;5.50;1.00;;;;;;4935113;29;20056;-78
2023/11/25 12:10:29;;;;;;;9.63;1.58;;;5.50;1.00;;;;;;4917668;29;20035;-78
2023/11/25 12:12:55;;;;;;;4.50;1.38;;;5.60;1.00;;;;;;4920287;29;20426;-77
2023/11/25 12:15:22;;;;;;;0.35;0.35;;;5.60;1.00;;;;;;4919234;29;20036;-79
2023/11/25 12:17:48;;;;;;;0.10;0.10;;;5.60;1.00;;;;;;4931889;28;20143;-78
2023/11/25 12:20:15;;;;;;;1.38;0.85;;;5.60;99.90;;;;;;4957858;28;20495;-77
2023/11/25 12:22:42;;;;;;;0.17;0.17;;;5.60;99.90;;;;;;4945293;28;20047;-78
2023/11/25 12:25:16;;;;;;;1.20;0.63;;;5.60;1.00;;;;;;4941977;28;20044;-78
2023/11/25 12:28:01;;;;;;;0.32;0.32;;;5.70;99.90;;;;;;4945385;28;20032;-79
2023/11/25 12:30:27;;;;;;;0.30;0.30;;;5.60;99.90;;;;;;4955983;28;20043;-77
2023/11/25 12:32:54;;;;;;;0.13;0.13;;;5.60;99.90;;;;;;4954088;28;20119;-77
2023/11/25 12:35:20;;;;;;;1.45;0.40;;;5.60;99.90;;;;;;4958828;28;20039;-78
2023/11/25 12:37:48;;;;;;;19.90;1.63;;;5.60;99.90;;;;;;4950965;28;20034;-80
2023/11/25 12:40:22;;;;;;;3.13;0.75;;;5.50;99.90;;;;;;4943612;29;20471;-78
2023/11/25 12:42:50;;;;;;;0.57;0.40;;;5.50;99.90;;;;;;4945752;29;20039;-77
2023/11/25 12:45:36;;;;;;;2.17;1.20;;;5.50;99.90;;;;;;4945532;29;20393;-78
2023/11/25 12:48:05;;;;;;;1.08;0.73;;;5.60;99.90;;;;;;4938240;29;20114;-77
2023/11/25 12:50:34;;;;;;;0.35;0.35;;;5.60;99.90;;;;;;4943113;29;20047;-78
2023/11/25 12:53:08;;;;;;;0.28;0.28;;;5.60;1.00;;;;;;4951587;29;20097;-79
2023/11/25 12:55:38;;;;;;;2.75;1.35;;;5.60;1.00;;;;;;4948919;29;20047;-79
2023/11/25 12:58:09;;;;;;;0.60;0.57;;;5.60;1.00;;;;;;4946078;29;20392;-79
2023/11/25 13:00:36;;;;;;;9.07;5.67;;;5.60;1.00;;;;;;4943889;29;20044;-80
2023/11/25 13:03:03;;;;;;;3.10;2.15;;;5.70;1.00;;;;;;4945588;29;20031;-79
2023/11/25 13:05:32;;;;;;;0.60;0.60;;;5.70;1.00;;;;;;4945673;29;20043;-80
2023/11/25 13:07:59;;;;;;;1.33;1.23;;;5.70;1.00;;;;;;4939907;29;20762;-79
2023/11/25 13:10:26;;;;;;;1.75;0.65;;;5.70;1.00;;;;;;4923899;29;20039;-79